Delta Virtual Airport Information Service

Tampa International Airport

ICAO: KTPA Country: United States
Latitude: 27.9755 Longitude: -82.5332
Latest Arrival : ASA770 (KSEA-KTPA) Latest Departure : DALJUMP (KTPA-KSLC)


WX CaptureLIVE
Data provided by noaa.gov | Fetched at 09:38:09

METAR : KTPA 041453Z VRB05KT 10SM FEW020 17/10 A3008 RMK AO2 SLP185 T01720100 50001

TAF : KTPA 041447Z 0415/0518 36012KT P6SM SCT015 FM041800 31009KT P6SM SCT040 FM050100 33005KT P6SM SKC FM050600 VRB03KT P6SM SKC FM051400 07006KT P6SM SCT250


Runway Data for KTPA
Data provided by openaviationdata.com

Runway ID Mag Var Hdg Length Elevation Surface ILS Freq ILS Id ILS Slope
9 -2 93° 6992 ft 26 ft Concrete -- -- --
18L -2 183° 8323 ft 26 ft Concrete 110.3 ITPA 3
18R -2 183° 11032 ft 26 ft Concrete 108.5 IJRT 3
27 -2 273° 6992 ft 26 ft Concrete -- -- --
36L -2 11032 ft 26 ft Concrete 108.9 IAMP 3
36R -2 8323 ft 26 ft Concrete 111.95 ITWJ 0

Tampa International Airport, United States
Use only for reference purposes



Not for navigational purposes.